Time;durP1;ratioP1;P1;durP2;ratioP2;P2;SDS_P1;SDS_P2;PMS_P1;PMS_P2;Temp;Humidity;BMP_temperature;BMP_pressure;BME280_temperature;BME280_humidity;BME280_pressure;Samples;Min_cycle;Max_cycle;Signal;HPM_P1;HPM_P2
2021/04/29 00:01:03;;;;;;;14.85;7.15;;;15.10;53.20;;;;;;5031824;28;20466;-76
2021/04/29 00:03:29;;;;;;;14.80;6.68;;;15.10;52.80;;;;;;5031621;28;20442;-76
2021/04/29 00:05:54;;;;;;;15.48;6.75;;;15.20;53.20;;;;;;5030787;28;20029;-75
2021/04/29 00:08:20;;;;;;;13.13;6.65;;;15.10;52.90;;;;;;5031616;28;20021;-74
2021/04/29 00:10:46;;;;;;;12.35;6.85;;;15.10;52.90;;;;;;5033092;28;20439;-76
2021/04/29 00:13:11;;;;;;;14.32;6.88;;;15.10;52.90;;;;;;5031531;28;20522;-76
2021/04/29 00:15:38;;;;;;;10.60;6.00;;;15.00;53.00;;;;;;5031389;28;20041;-75
2021/04/29 00:18:03;;;;;;;13.32;6.85;;;15.10;52.80;;;;;;5030338;28;20477;-77
2021/04/29 00:20:29;;;;;;;15.38;6.78;;;15.00;52.90;;;;;;5031447;28;20677;-76
2021/04/29 00:22:55;;;;;;;13.30;6.63;;;14.90;52.90;;;;;;5033188;28;20029;-76
2021/04/29 00:25:20;;;;;;;17.48;6.30;;;15.00;52.60;;;;;;5031635;28;20129;-76
2021/04/29 00:27:46;;;;;;;12.93;6.13;;;15.00;52.70;;;;;;5031432;28;20042;-76
2021/04/29 00:30:12;;;;;;;14.23;6.65;;;14.90;52.50;;;;;;5031332;28;20421;-74
2021/04/29 00:32:39;;;;;;;14.18;6.05;;;15.00;52.00;;;;;;5031138;28;20423;-76
2021/04/29 00:35:05;;;;;;;12.70;6.55;;;14.90;52.40;;;;;;5032770;28;20044;-76
2021/04/29 00:37:31;;;;;;;13.05;6.00;;;15.00;52.30;;;;;;5031191;28;20125;-76
2021/04/29 00:39:57;;;;;;;15.15;5.93;;;15.00;51.80;;;;;;5031295;28;20399;-75
2021/04/29 00:42:23;;;;;;;12.02;6.45;;;15.00;51.60;;;;;;5031261;28;20038;-75
2021/04/29 00:44:48;;;;;;;15.57;6.80;;;14.90;51.40;;;;;;5030779;28;20058;-76
2021/04/29 00:47:14;;;;;;;12.10;6.72;;;14.90;51.30;;;;;;5030863;28;20036;-76
2021/04/29 00:49:40;;;;;;;13.82;7.35;;;14.90;51.50;;;;;;5032815;28;20026;-76
2021/04/29 00:52:06;;;;;;;14.02;6.97;;;14.90;51.70;;;;;;5029443;28;20136;-75
2021/04/29 00:54:31;;;;;;;17.20;7.43;;;14.90;51.70;;;;;;5030805;28;20025;-75
2021/04/29 00:56:57;;;;;;;14.73;6.85;;;14.90;51.80;;;;;;5030910;28;20038;-74
2021/04/29 00:59:23;;;;;;;11.25;6.75;;;14.80;52.00;;;;;;5029643;28;20410;-75
2021/04/29 01:02:03;;;;;;;13.88;7.50;;;14.80;52.20;;;;;;5032333;28;20510;-75
2021/04/29 01:04:36;;;;;;;14.48;7.15;;;14.80;52.70;;;;;;5030736;28;20379;-75
2021/04/29 01:07:06;;;;;;;13.23;7.10;;;14.80;54.00;;;;;;5029519;28;20045;-75
2021/04/29 01:09:46;;;;;;;10.95;7.10;;;14.70;54.60;;;;;;5030702;28;20105;-75
2021/04/29 01:12:27;;;;;;;12.70;7.25;;;14.70;56.20;;;;;;5030490;28;20053;-75
2021/04/29 01:14:57;;;;;;;13.35;6.75;;;14.70;57.20;;;;;;5030593;28;20030;-75
2021/04/29 01:17:23;;;;;;;11.25;7.18;;;14.70;58.10;;;;;;5029243;28;20466;-75
2021/04/29 01:19:56;;;;;;;12.55;7.18;;;14.60;59.60;;;;;;5031898;28;20399;-75
2021/04/29 01:22:22;;;;;;;14.80;7.70;;;14.60;60.80;;;;;;5030278;28;20033;-74
2021/04/29 01:25:07;;;;;;;13.55;6.78;;;14.60;61.70;;;;;;5030056;28;20095;-75
2021/04/29 01:27:36;;;;;;;13.18;8.10;;;14.60;62.90;;;;;;5029899;28;20033;-75
2021/04/29 01:30:06;;;;;;;13.75;7.88;;;14.60;64.10;;;;;;5030105;28;20054;-75
2021/04/29 01:32:34;;;;;;;11.13;7.03;;;14.60;66.00;;;;;;5030017;28;20511;-76
2021/04/29 01:35:00;;;;;;;11.82;7.32;;;14.50;67.10;;;;;;5031916;28;20507;-76
2021/04/29 01:37:25;;;;;;;12.80;6.88;;;14.50;68.60;;;;;;5029822;28;20033;-75
2021/04/29 01:39:52;;;;;;;10.98;7.60;;;14.50;69.70;;;;;;5029844;28;20406;-75
2021/04/29 01:42:17;;;;;;;9.70;6.70;;;14.50;72.10;;;;;;5029742;28;20379;-75
2021/04/29 01:44:44;;;;;;;16.30;7.80;;;14.40;73.80;;;;;;5029582;28;20129;-75
2021/04/29 01:47:10;;;;;;;9.70;6.65;;;14.40;75.80;;;;;;5031433;28;20041;-75
2021/04/29 01:49:36;;;;;;;11.48;7.47;;;14.30;77.80;;;;;;5029850;28;20030;-75
2021/04/29 01:52:01;;;;;;;10.93;7.20;;;14.30;79.50;;;;;;5029998;28;20037;-75
2021/04/29 01:54:27;;;;;;;16.20;6.78;;;14.30;81.20;;;;;;5029814;28;20036;-75
2021/04/29 01:56:53;;;;;;;12.63;7.45;;;14.20;83.90;;;;;;5029796;28;20121;-75
2021/04/29 01:59:19;;;;;;;13.10;7.57;;;14.20;85.10;;;;;;5028668;28;20057;-75
2021/04/29 02:01:45;;;;;;;13.88;7.47;;;14.20;86.10;;;;;;5031032;28;20105;-75
2021/04/29 02:04:11;;;;;;;16.38;7.60;;;14.20;87.40;;;;;;5028410;28;20037;-75
2021/04/29 02:06:42;;;;;;;10.77;7.22;;;14.00;89.40;;;;;;5029597;28;20034;-75
2021/04/29 02:09:08;;;;;;;15.20;8.18;;;14.00;90.00;;;;;;5029613;28;20052;-76
2021/04/29 02:11:38;;;;;;;14.50;9.05;;;14.00;90.70;;;;;;5029383;28;20094;-74
2021/04/29 02:14:06;;;;;;;11.73;8.02;;;13.80;91.60;;;;;;5030924;28;20094;-77
2021/04/29 02:16:44;;;;;;;13.90;8.32;;;13.80;92.10;;;;;;5029254;28;20359;-75
2021/04/29 02:19:12;;;;;;;12.93;8.32;;;13.80;92.50;;;;;;5029569;28;20045;-76
2021/04/29 02:21:41;;;;;;;12.25;9.00;;;13.80;92.80;;;;;;5028629;28;20128;-75
2021/04/29 02:24:08;;;;;;;18.10;9.18;;;13.80;93.00;;;;;;5029261;28;20041;-75
2021/04/29 02:26:34;;;;;;;15.27;9.75;;;13.70;93.30;;;;;;5029160;28;20046;-76
2021/04/29 02:29:04;;;;;;;16.25;9.32;;;13.60;93.70;;;;;;5029807;28;20350;-76
2021/04/29 02:31:32;;;;;;;16.25;9.80;;;13.70;93.90;;;;;;5028110;28;20128;-76
2021/04/29 02:33:59;;;;;;;14.35;10.05;;;13.70;94.30;;;;;;5029191;28;20172;-75
2021/04/29 02:36:25;;;;;;;13.10;9.55;;;13.60;94.40;;;;;;5029158;28;20525;-76
2021/04/29 02:38:53;;;;;;;20.02;9.80;;;13.50;95.00;;;;;;5029440;28;20057;-76
2021/04/29 02:41:19;;;;;;;14.25;10.15;;;13.50;95.00;;;;;;5029201;28;20026;-76
2021/04/29 02:43:45;;;;;;;14.30;9.75;;;13.40;95.30;;;;;;5030938;28;20028;-75
2021/04/29 02:46:10;;;;;;;11.90;9.38;;;13.30;95.50;;;;;;5028887;28;20049;-76
2021/04/29 02:48:36;;;;;;;19.73;11.32;;;13.30;95.60;;;;;;5028906;28;20363;-77
2021/04/29 02:51:03;;;;;;;15.68;10.73;;;13.30;95.60;;;;;;5027801;28;20038;-76
2021/04/29 02:53:29;;;;;;;16.20;10.48;;;13.20;96.10;;;;;;5029034;28;20029;-76
2021/04/29 02:55:55;;;;;;;17.60;11.23;;;13.10;96.40;;;;;;5030363;28;20028;-76
2021/04/29 02:58:20;;;;;;;16.90;9.90;;;13.00;96.40;;;;;;5029303;28;20120;-77
2021/04/29 03:00:47;;;;;;;16.35;10.40;;;13.10;96.40;;;;;;5028905;28;20525;-75
2021/04/29 03:03:13;;;;;;;15.48;11.43;;;13.00;96.50;;;;;;5028827;28;20041;-76
2021/04/29 03:05:39;;;;;;;18.10;11.43;;;12.90;96.90;;;;;;5028977;28;20334;-76
2021/04/29 03:08:07;;;;;;;18.13;11.23;;;12.90;97.10;;;;;;5030427;28;20105;-76
2021/04/29 03:10:33;;;;;;;20.60;11.32;;;12.80;97.30;;;;;;5029090;28;20069;-76
2021/04/29 03:12:59;;;;;;;17.05;11.02;;;12.90;97.00;;;;;;5029009;28;20038;-76
2021/04/29 03:15:24;;;;;;;23.05;11.27;;;12.90;97.10;;;;;;5029179;28;20029;-75
2021/04/29 03:17:50;;;;;;;21.58;11.88;;;12.80;97.00;;;;;;5029320;28;20415;-76
2021/04/29 03:20:15;;;;;;;16.33;10.77;;;12.80;97.50;;;;;;5027227;28;20083;-76
2021/04/29 03:22:41;;;;;;;17.52;11.48;;;12.90;97.20;;;;;;5030295;28;20037;-77
2021/04/29 03:25:07;;;;;;;17.63;11.82;;;12.90;97.60;;;;;;5028381;28;20046;-76
2021/04/29 03:27:33;;;;;;;19.52;12.18;;;12.80;97.30;;;;;;5028711;28;20205;-75
2021/04/29 03:29:59;;;;;;;15.98;11.23;;;12.80;97.80;;;;;;5028518;28;20136;-77
2021/04/29 03:32:25;;;;;;;17.33;12.48;;;12.90;97.80;;;;;;5027569;28;20064;-77
2021/04/29 03:34:51;;;;;;;16.50;11.95;;;12.90;97.80;;;;;;5031785;28;20029;-76
2021/04/29 03:37:17;;;;;;;17.75;11.68;;;12.80;98.20;;;;;;5032446;28;20125;-76
2021/04/29 03:39:43;;;;;;;20.27;12.32;;;12.80;98.00;;;;;;5031324;28;20128;-77
2021/04/29 03:42:10;;;;;;;16.90;11.85;;;12.80;97.90;;;;;;5032495;28;20056;-75
2021/04/29 03:44:37;;;;;;;19.55;12.38;;;12.80;98.00;;;;;;5032315;28;20025;-75
2021/04/29 03:47:03;;;;;;;18.77;12.80;;;12.90;98.10;;;;;;5033500;28;20017;-76
2021/04/29 03:49:30;;;;;;;21.95;12.30;;;12.90;97.90;;;;;;5032199;28;20052;-76
2021/04/29 03:51:55;;;;;;;20.70;13.98;;;12.90;98.10;;;;;;5031766;28;20029;-75
2021/04/29 03:54:21;;;;;;;22.45;13.63;;;12.80;98.30;;;;;;5032169;28;20044;-76
2021/04/29 03:56:47;;;;;;;21.65;13.45;;;12.90;98.10;;;;;;5031897;28;20459;-76
2021/04/29 03:59:13;;;;;;;15.98;13.05;;;13.00;98.10;;;;;;5030929;28;20049;-76
2021/04/29 04:01:39;;;;;;;19.60;14.07;;;13.00;98.30;;;;;;5033527;28;20123;-76
2021/04/29 04:04:05;;;;;;;19.45;12.75;;;12.90;98.20;;;;;;5032150;28;20043;-76
2021/04/29 04:06:31;;;;;;;21.50;14.18;;;13.00;98.00;;;;;;5032057;28;20354;-75
2021/04/29 04:08:56;;;;;;;21.55;13.75;;;13.00;98.30;;;;;;5031531;28;20048;-76
2021/04/29 04:11:22;;;;;;;20.35;12.73;;;13.00;98.20;;;;;;5031866;28;20030;-78
2021/04/29 04:13:49;;;;;;;19.88;13.07;;;13.00;98.20;;;;;;5033183;28;20025;-76
2021/04/29 04:16:15;;;;;;;22.80;14.00;;;13.00;98.70;;;;;;5031730;28;20498;-76
2021/04/29 04:18:41;;;;;;;21.50;13.52;;;13.00;98.20;;;;;;5031555;28;20037;-75
2021/04/29 04:21:07;;;;;;;18.08;13.10;;;13.00;98.10;;;;;;5031495;28;20096;-77
2021/04/29 04:23:32;;;;;;;19.42;13.65;;;13.00;98.50;;;;;;5031335;28;20041;-76
2021/04/29 04:25:59;;;;;;;23.83;14.57;;;13.10;98.50;;;;;;5033396;28;20048;-76
2021/04/29 04:28:25;;;;;;;24.52;14.60;;;13.10;98.80;;;;;;5031220;28;20037;-76
2021/04/29 04:30:51;;;;;;;22.42;13.82;;;13.00;99.00;;;;;;5031384;28;20115;-76
2021/04/29 04:33:16;;;;;;;22.83;15.05;;;13.10;99.00;;;;;;5031357;28;20148;-77
2021/04/29 04:35:42;;;;;;;23.05;15.63;;;13.10;99.00;;;;;;5030489;28;20038;-76
2021/04/29 04:38:08;;;;;;;22.40;15.00;;;13.10;99.00;;;;;;5032905;28;20120;-76
2021/04/29 04:40:35;;;;;;;23.40;14.52;;;13.10;99.00;;;;;;5031324;28;20038;-76
2021/04/29 04:43:01;;;;;;;22.20;15.18;;;13.10;98.90;;;;;;5030025;28;20064;-76
2021/04/29 04:45:27;;;;;;;22.35;15.95;;;13.00;99.00;;;;;;5030090;28;20072;-76
2021/04/29 04:47:52;;;;;;;23.35;15.82;;;13.10;99.40;;;;;;5030910;28;20544;-77
2021/04/29 04:50:18;;;;;;;27.77;15.85;;;13.20;99.10;;;;;;5029683;28;20419;-76
2021/04/29 04:52:43;;;;;;;24.17;15.75;;;13.10;99.00;;;;;;5032569;28;20048;-76
2021/04/29 04:55:09;;;;;;;27.20;15.55;;;13.10;99.20;;;;;;5030736;28;20103;-76
2021/04/29 04:57:35;;;;;;;22.42;14.90;;;13.10;99.20;;;;;;5030906;28;20060;-76
2021/04/29 05:00:01;;;;;;;25.30;16.15;;;13.20;99.10;;;;;;5030731;28;20033;-76
2021/04/29 05:02:27;;;;;;;25.38;17.85;;;13.20;99.20;;;;;;5030304;28;20648;-76
2021/04/29 05:04:53;;;;;;;25.63;17.38;;;13.20;99.50;;;;;;5032123;28;20029;-77
2021/04/29 05:07:18;;;;;;;25.98;17.95;;;13.20;99.30;;;;;;5030556;28;20124;-77
2021/04/29 05:09:44;;;;;;;32.75;19.80;;;13.20;99.60;;;;;;5030265;28;20052;-77
2021/04/29 05:12:11;;;;;;;26.23;18.23;;;13.20;99.60;;;;;;5030458;28;20051;-77
2021/04/29 05:14:36;;;;;;;28.27;18.67;;;13.30;99.80;;;;;;5030517;28;20025;-76
2021/04/29 05:17:02;;;;;;;26.45;17.42;;;13.30;99.70;;;;;;5031961;28;20497;-77
2021/04/29 05:19:28;;;;;;;27.17;16.77;;;13.20;99.50;;;;;;5030370;28;20037;-77
2021/04/29 05:21:53;;;;;;;26.48;17.38;;;13.30;99.30;;;;;;5029349;28;20440;-75
2021/04/29 05:24:19;;;;;;;28.25;18.85;;;13.30;99.50;;;;;;5030328;28;20053;-77
2021/04/29 05:26:45;;;;;;;26.33;18.58;;;13.30;99.80;;;;;;5030036;28;20045;-77
2021/04/29 05:29:12;;;;;;;25.92;18.90;;;13.40;99.80;;;;;;5031779;28;20026;-77
2021/04/29 05:31:38;;;;;;;34.70;21.30;;;13.40;99.70;;;;;;5030070;28;20038;-77
2021/04/29 05:34:04;;;;;;;33.78;20.48;;;13.30;99.50;;;;;;5029989;28;20375;-76
2021/04/29 05:36:30;;;;;;;36.30;21.35;;;13.30;99.50;;;;;;5029908;28;20038;-77
2021/04/29 05:38:56;;;;;;;28.63;18.35;;;13.30;99.70;;;;;;5029959;28;20048;-77
2021/04/29 05:41:22;;;;;;;33.05;20.60;;;13.30;99.70;;;;;;5029713;28;20025;-77
2021/04/29 05:43:48;;;;;;;26.88;19.92;;;13.30;99.30;;;;;;5031330;28;20014;-76
2021/04/29 05:46:14;;;;;;;29.52;20.85;;;13.40;99.40;;;;;;5030079;28;20517;-77
2021/04/29 05:48:39;;;;;;;28.75;19.63;;;13.40;99.50;;;;;;5029553;28;20120;-78
2021/04/29 05:51:05;;;;;;;29.95;19.50;;;13.30;99.40;;;;;;5029651;28;20128;-77
2021/04/29 05:53:31;;;;;;;28.58;20.13;;;13.30;99.40;;;;;;5028511;28;20022;-76
2021/04/29 05:55:56;;;;;;;31.20;20.88;;;13.30;99.60;;;;;;5031046;28;20053;-76
2021/04/29 05:58:22;;;;;;;27.20;19.40;;;13.30;99.50;;;;;;5028070;28;20420;-77
2021/04/29 06:00:47;;;;;;;27.02;18.90;;;13.30;99.30;;;;;;5029859;28;20067;-75
2021/04/29 06:03:14;;;;;;;25.23;18.33;;;13.30;99.00;;;;;;5029462;28;20064;-77
2021/04/29 06:05:40;;;;;;;29.88;18.33;;;13.20;99.20;;;;;;5029093;28;20045;-76
2021/04/29 06:08:05;;;;;;;27.83;19.35;;;13.20;99.40;;;;;;5029782;28;20198;-75
2021/04/29 06:10:32;;;;;;;31.95;18.85;;;13.20;99.30;;;;;;5028009;28;20041;-77
2021/04/29 06:12:58;;;;;;;25.80;19.10;;;13.20;99.20;;;;;;5029148;28;20411;-77
2021/04/29 06:15:24;;;;;;;27.63;18.92;;;13.20;99.30;;;;;;5029157;28;20040;-77
2021/04/29 06:17:50;;;;;;;27.25;19.67;;;13.10;99.40;;;;;;5029944;28;20041;-76
2021/04/29 06:20:16;;;;;;;26.98;19.60;;;13.00;99.50;;;;;;5029130;28;20431;-76
2021/04/29 06:22:43;;;;;;;29.13;20.10;;;13.00;99.50;;;;;;5031120;28;20029;-77
2021/04/29 06:25:09;;;;;;;32.53;19.73;;;13.00;99.60;;;;;;5028986;28;20136;-77
2021/04/29 06:27:35;;;;;;;30.75;19.25;;;13.00;99.50;;;;;;5029138;28;20037;-76
2021/04/29 06:30:02;;;;;;;30.63;21.27;;;13.00;99.50;;;;;;5029252;28;20053;-78
2021/04/29 06:32:28;;;;;;;31.90;21.58;;;13.00;99.50;;;;;;5029209;28;20029;-76
2021/04/29 06:34:54;;;;;;;31.23;21.90;;;13.00;99.80;;;;;;5029521;28;20025;-77
2021/04/29 06:37:19;;;;;;;44.25;25.38;;;13.00;99.90;;;;;;5028956;28;20132;-76
2021/04/29 06:39:46;;;;;;;40.55;24.85;;;12.90;99.50;;;;;;5029157;28;20029;-76
2021/04/29 06:42:12;;;;;;;42.28;24.90;;;12.80;99.30;;;;;;5028620;28;20451;-77
2021/04/29 06:44:38;;;;;;;39.63;24.55;;;12.80;99.70;;;;;;5028714;28;20033;-78
2021/04/29 06:47:04;;;;;;;41.63;23.55;;;12.80;99.60;;;;;;5030737;28;20360;-76
2021/04/29 06:49:30;;;;;;;38.13;21.33;;;12.80;99.20;;;;;;5029036;28;20064;-77
2021/04/29 06:51:56;;;;;;;33.80;21.15;;;12.80;99.30;;;;;;5029134;28;20033;-76
2021/04/29 06:54:21;;;;;;;36.72;22.52;;;12.80;99.40;;;;;;5028825;28;20038;-76
2021/04/29 06:56:47;;;;;;;30.08;19.77;;;12.70;99.60;;;;;;5028943;28;20041;-77
2021/04/29 06:59:13;;;;;;;33.72;20.60;;;12.70;99.50;;;;;;5027799;28;20026;-77
2021/04/29 07:01:41;;;;;;;30.42;20.48;;;12.70;99.60;;;;;;5030310;28;20448;-77
2021/04/29 07:04:06;;;;;;;32.95;21.27;;;12.70;99.40;;;;;;5028886;28;20764;-78
2021/04/29 07:06:32;;;;;;;32.60;20.30;;;12.70;99.50;;;;;;5029010;28;20120;-76
2021/04/29 07:08:58;;;;;;;31.67;20.58;;;12.70;99.40;;;;;;5030202;28;20028;-77
2021/04/29 07:11:25;;;;;;;33.75;20.88;;;12.70;99.50;;;;;;5032631;28;20453;-77
2021/04/29 07:13:50;;;;;;;33.40;20.63;;;12.60;99.50;;;;;;5034407;28;20033;-77
2021/04/29 07:16:16;;;;;;;33.22;20.38;;;12.50;99.60;;;;;;5032772;28;20029;-78
2021/04/29 07:18:42;;;;;;;29.15;18.75;;;12.50;99.70;;;;;;5032648;28;20044;-78
2021/04/29 07:21:07;;;;;;;31.90;19.85;;;12.60;99.80;;;;;;5032584;28;20117;-76
2021/04/29 07:23:33;;;;;;;29.70;19.20;;;12.50;99.30;;;;;;5032305;28;20051;-76
2021/04/29 07:25:59;;;;;;;30.65;19.63;;;12.60;99.40;;;;;;5032943;28;20033;-77
2021/04/29 07:28:24;;;;;;;31.90;18.85;;;12.60;99.60;;;;;;5032129;28;20467;-75
2021/04/29 07:30:51;;;;;;;30.45;18.15;;;12.60;99.60;;;;;;5032120;28;20125;-76
2021/04/29 07:33:16;;;;;;;29.80;19.23;;;12.50;99.30;;;;;;5032064;28;20518;-77
2021/04/29 07:35:42;;;;;;;30.98;19.52;;;12.50;99.60;;;;;;5032122;28;20038;-77
2021/04/29 07:38:09;;;;;;;29.55;20.10;;;12.60;99.70;;;;;;5033514;28;20025;-77
2021/04/29 07:40:34;;;;;;;32.17;21.63;;;12.50;99.30;;;;;;5032006;28;20049;-76
2021/04/29 07:43:00;;;;;;;36.85;21.63;;;12.40;98.90;;;;;;5030865;28;20037;-77
2021/04/29 07:45:27;;;;;;;33.17;19.60;;;12.40;98.90;;;;;;5032115;28;20037;-76
2021/04/29 07:47:52;;;;;;;30.80;18.27;;;12.30;98.90;;;;;;5030494;28;20049;-77
2021/04/29 07:50:19;;;;;;;38.40;20.95;;;12.30;99.20;;;;;;5031549;28;20018;-76
2021/04/29 07:52:45;;;;;;;36.22;21.92;;;12.30;99.40;;;;;;5033270;28;20450;-77
2021/04/29 07:55:12;;;;;;;41.47;21.17;;;12.40;99.50;;;;;;5030847;28;20140;-78
2021/04/29 07:57:39;;;;;;;36.00;21.70;;;12.30;99.30;;;;;;5031402;28;20057;-76
2021/04/29 08:00:05;;;;;;;37.17;21.65;;;12.40;99.30;;;;;;5031853;28;20041;-77
2021/04/29 08:02:32;;;;;;;37.88;21.98;;;12.30;99.40;;;;;;5031677;28;20026;-77
2021/04/29 08:04:58;;;;;;;34.20;21.33;;;12.30;99.40;;;;;;5033273;28;20074;-76
2021/04/29 08:07:23;;;;;;;30.30;20.27;;;12.30;99.40;;;;;;5031648;28;20072;-77
2021/04/29 08:09:50;;;;;;;37.08;22.35;;;12.30;99.30;;;;;;5031367;28;20029;-77
2021/04/29 08:12:15;;;;;;;40.22;21.75;;;12.20;99.40;;;;;;5030729;28;20040;-77
2021/04/29 08:14:41;;;;;;;37.05;21.95;;;12.30;99.60;;;;;;5029057;28;20034;-76
2021/04/29 08:17:07;;;;;;;34.92;22.67;;;12.30;99.90;;;;;;5032774;28;20025;-77
2021/04/29 08:19:33;;;;;;;32.85;20.73;;;12.30;99.70;;;;;;5031300;28;20124;-77
2021/04/29 08:21:58;;;;;;;39.72;23.25;;;12.40;99.70;;;;;;5030010;28;20057;-75
2021/04/29 08:24:24;;;;;;;37.70;23.08;;;12.50;99.90;;;;;;5031424;28;20132;-77
2021/04/29 08:26:49;;;;;;;35.88;22.48;;;12.50;99.90;;;;;;5031189;28;20037;-77
2021/04/29 08:29:15;;;;;;;33.25;22.25;;;12.50;99.90;;;;;;5029990;28;20021;-76
2021/04/29 08:31:41;;;;;;;33.22;22.15;;;12.50;99.90;;;;;;5032673;28;20074;-77
2021/04/29 08:34:06;;;;;;;31.02;21.45;;;12.60;99.90;;;;;;5031220;28;20034;-75
2021/04/29 08:36:32;;;;;;;33.28;22.35;;;12.60;99.90;;;;;;5031369;28;20026;-78
2021/04/29 08:39:00;;;;;;;35.00;22.08;;;12.60;99.90;;;;;;5030837;28;20026;-78
2021/04/29 08:41:26;;;;;;;34.72;22.35;;;12.60;99.90;;;;;;5026149;28;20014;-76
2021/04/29 08:43:52;;;;;;;35.97;21.48;;;12.70;99.90;;;;;;5032517;28;20349;-77
2021/04/29 08:46:20;;;;;;;35.42;22.40;;;12.70;99.90;;;;;;5029864;28;20029;-77
2021/04/29 08:48:50;;;;;;;33.88;21.23;;;12.70;99.90;;;;;;5030961;28;20029;-76
2021/04/29 08:51:16;;;;;;;26.27;19.85;;;12.80;99.90;;;;;;5030908;28;20079;-76
2021/04/29 08:53:42;;;;;;;33.85;20.60;;;12.80;99.90;;;;;;5030805;28;20087;-77
2021/04/29 08:56:08;;;;;;;30.38;19.73;;;12.80;99.90;;;;;;5032427;28;20021;-77
2021/04/29 08:58:36;;;;;;;29.35;20.48;;;12.90;99.90;;;;;;5030384;28;20372;-77
2021/04/29 09:01:05;;;;;;;27.10;17.65;;;13.00;99.90;;;;;;5029436;28;20048;-76
2021/04/29 09:03:32;;;;;;;25.50;18.20;;;13.00;99.90;;;;;;5030505;28;20110;-76
2021/04/29 09:06:04;;;;;;;23.75;17.25;;;13.00;99.90;;;;;;5030363;28;20046;-76
2021/04/29 09:08:31;;;;;;;26.63;17.60;;;13.00;99.90;;;;;;5030262;28;20478;-76
2021/04/29 09:11:08;;;;;;;26.02;17.95;;;13.10;99.90;;;;;;5031791;28;20033;-76
2021/04/29 09:13:34;;;;;;;25.67;17.98;;;13.20;99.60;;;;;;5030086;28;20041;-78
2021/04/29 09:16:10;;;;;;;25.60;18.05;;;13.00;99.40;;;;;;5029950;28;20030;-77
2021/04/29 09:18:37;;;;;;;23.90;16.35;;;13.00;99.40;;;;;;5028651;28;20029;-76
2021/04/29 09:21:14;;;;;;;30.23;20.00;;;13.00;99.30;;;;;;5029917;28;20038;-75
2021/04/29 09:23:45;;;;;;;26.33;17.88;;;12.90;99.10;;;;;;5029772;28;20069;-77
2021/04/29 09:26:18;;;;;;;22.15;15.13;;;13.00;98.90;;;;;;5031148;28;20117;-76
2021/04/29 09:28:45;;;;;;;24.27;17.20;;;12.90;98.80;;;;;;5029706;28;20033;-77
2021/04/29 09:31:18;;;;;;;24.95;17.80;;;12.90;99.10;;;;;;5029221;28;20076;-76
2021/04/29 09:33:56;;;;;;;26.05;17.58;;;13.00;99.20;;;;;;5028896;28;20041;-76
2021/04/29 09:36:21;;;;;;;22.20;16.63;;;13.00;99.00;;;;;;5029089;28;20095;-77
2021/04/29 09:39:03;;;;;;;29.58;18.80;;;13.00;99.10;;;;;;5029442;28;20029;-77
2021/04/29 09:41:46;;;;;;;26.40;18.25;;;12.90;99.00;;;;;;5029421;28;20039;-77
2021/04/29 09:44:22;;;;;;;28.40;18.35;;;12.80;99.00;;;;;;5030290;28;20029;-78
2021/04/29 09:46:53;;;;;;;31.63;20.00;;;12.90;99.40;;;;;;5029791;28;20479;-78
2021/04/29 09:49:32;;;;;;;26.23;16.67;;;12.80;99.60;;;;;;5027908;28;20061;-78
2021/04/29 09:52:00;;;;;;;26.08;17.05;;;12.90;99.40;;;;;;5028108;28;20513;-76
2021/04/29 09:54:36;;;;;;;31.23;18.08;;;13.00;99.20;;;;;;5028329;28;20029;-76
2021/04/29 09:57:04;;;;;;;27.92;17.80;;;13.10;99.00;;;;;;5029273;28;20099;-76
2021/04/29 09:59:31;;;;;;;28.98;18.48;;;13.30;99.10;;;;;;5028903;28;20037;-76
2021/04/29 10:01:58;;;;;;;28.77;18.23;;;13.40;99.50;;;;;;5029730;28;20483;-75
2021/04/29 10:04:27;;;;;;;26.40;16.50;;;13.50;99.00;;;;;;5028243;28;20049;-76
2021/04/29 10:06:54;;;;;;;24.55;16.83;;;13.50;98.70;;;;;;5029438;28;20455;-76
2021/04/29 10:09:24;;;;;;;23.38;16.45;;;13.60;98.70;;;;;;5029201;28;20126;-76
2021/04/29 10:11:54;;;;;;;25.33;16.58;;;13.40;98.40;;;;;;5029429;28;20119;-77
2021/04/29 10:14:20;;;;;;;26.65;17.13;;;13.50;98.50;;;;;;5028092;28;20052;-76
2021/04/29 10:16:46;;;;;;;22.02;16.00;;;13.50;98.60;;;;;;5030968;28;20164;-76
2021/04/29 10:19:13;;;;;;;24.98;16.85;;;13.50;98.60;;;;;;5029123;28;20571;-77
2021/04/29 10:21:38;;;;;;;34.63;22.25;;;13.40;98.70;;;;;;5028819;28;20459;-76
2021/04/29 10:24:04;;;;;;;36.88;24.08;;;13.50;98.70;;;;;;5029023;28;20132;-77
2021/04/29 10:26:32;;;;;;;27.85;18.70;;;13.40;98.80;;;;;;5028815;28;20025;-76
2021/04/29 10:29:04;;;;;;;27.52;17.73;;;13.50;99.30;;;;;;5030495;28;20091;-76
2021/04/29 10:31:32;;;;;;;22.90;17.30;;;13.40;99.50;;;;;;5029060;28;20053;-77
2021/04/29 10:34:01;;;;;;;26.90;17.85;;;13.40;99.90;;;;;;5028408;28;20152;-77
2021/04/29 10:36:39;;;;;;;34.83;23.02;;;13.40;99.90;;;;;;5028797;28;20034;-76
2021/04/29 10:39:22;;;;;;;33.20;19.15;;;13.50;99.90;;;;;;5028844;28;20029;-78
2021/04/29 10:42:12;;;;;;;23.23;17.10;;;13.60;99.90;;;;;;5028623;28;20030;-76
2021/04/29 10:44:45;;;;;;;24.02;16.67;;;13.70;99.60;;;;;;5028624;28;20034;-76
2021/04/29 10:47:23;;;;;;;21.00;15.80;;;13.90;99.50;;;;;;5030329;28;20033;-77
2021/04/29 10:49:49;;;;;;;20.08;14.75;;;14.50;99.60;;;;;;5029014;28;20049;-76
2021/04/29 10:52:15;;;;;;;21.17;14.48;;;15.00;99.40;;;;;;5029288;28;20124;-75
2021/04/29 10:54:52;;;;;;;23.08;14.85;;;15.30;98.30;;;;;;5029008;28;20119;-76
2021/04/29 10:57:19;;;;;;;19.33;14.70;;;15.70;98.40;;;;;;5028745;28;20033;-76
2021/04/29 10:59:47;;;;;;;21.75;14.05;;;15.90;97.60;;;;;;5028650;28;20105;-75
2021/04/29 11:02:36;;;;;;;20.33;13.73;;;16.10;97.30;;;;;;5028828;28;20021;-74
2021/04/29 11:05:07;;;;;;;18.45;13.13;;;16.40;96.40;;;;;;5030163;28;20396;-76
2021/04/29 11:07:32;;;;;;;20.25;14.68;;;16.50;95.70;;;;;;5028539;28;20037;-76
2021/04/29 11:10:18;;;;;;;22.95;16.40;;;16.60;95.90;;;;;;5027218;28;20041;-75
2021/04/29 11:12:48;;;;;;;19.83;13.93;;;16.80;95.20;;;;;;5028321;28;20068;-76
2021/04/29 11:15:30;;;;;;;20.60;13.07;;;16.90;94.50;;;;;;5028575;28;20040;-76
2021/04/29 11:18:05;;;;;;;18.75;14.40;;;16.90;94.30;;;;;;5027663;28;20105;-78
2021/04/29 11:20:46;;;;;;;20.48;14.70;;;17.10;95.10;;;;;;5028239;28;20018;-76
2021/04/29 11:23:13;;;;;;;20.58;15.57;;;17.30;95.00;;;;;;5030165;28;20336;-74
2021/04/29 11:25:40;;;;;;;21.65;15.18;;;17.50;95.60;;;;;;5028946;28;20045;-76
2021/04/29 11:28:07;;;;;;;22.20;15.00;;;17.70;93.80;;;;;;5028568;28;20056;-77
2021/04/29 11:30:33;;;;;;;22.88;16.63;;;17.70;93.60;;;;;;5028052;28;20053;-77
2021/04/29 11:33:08;;;;;;;21.52;15.00;;;17.70;92.90;;;;;;5027993;28;20029;-76
2021/04/29 11:35:36;;;;;;;20.00;14.25;;;17.40;92.30;;;;;;5028375;28;20080;-76
2021/04/29 11:38:04;;;;;;;20.55;15.05;;;17.50;92.10;;;;;;5029681;28;20363;-77
2021/04/29 11:40:32;;;;;;;;;;;17.30;91.90;;;;;;5027410;28;20062;-76
2021/04/29 11:43:00;;;;;;;23.10;16.38;;;17.20;91.70;;;;;;5026393;28;19990;-77
2021/04/29 11:45:29;;;;;;;26.15;16.58;;;17.00;91.80;;;;;;5028402;28;20360;-76
2021/04/29 11:48:04;;;;;;;21.30;13.40;;;16.90;92.40;;;;;;5027894;28;20363;-76
2021/04/29 11:50:34;;;;;;;17.75;11.27;;;16.10;90.90;;;;;;5028051;28;20025;-76
2021/04/29 11:53:10;;;;;;;17.60;10.32;;;15.40;90.70;;;;;;5029710;28;20035;-75
2021/04/29 11:55:38;;;;;;;19.80;10.60;;;15.40;90.00;;;;;;5028892;28;20064;-75
2021/04/29 11:58:08;;;;;;;17.88;11.40;;;15.30;90.60;;;;;;5031731;28;20113;-75
2021/04/29 12:00:46;;;;;;;22.00;14.15;;;15.50;92.10;;;;;;5030626;28;20041;-75
2021/04/29 12:03:12;;;;;;;20.65;12.07;;;15.70;94.50;;;;;;5031900;28;20033;-75
2021/04/29 12:05:46;;;;;;;19.13;13.10;;;16.00;93.90;;;;;;5031921;28;20332;-74
2021/04/29 12:08:23;;;;;;;18.50;12.07;;;16.20;93.10;;;;;;5033096;28;20451;-75
2021/04/29 12:10:57;;;;;;;21.52;13.38;;;16.40;92.40;;;;;;5030476;28;20041;-77
2021/04/29 12:13:37;;;;;;;20.88;12.98;;;16.60;93.00;;;;;;5031335;28;20052;-78
2021/04/29 12:16:05;;;;;;;22.40;13.55;;;16.90;92.80;;;;;;5031494;28;20459;-76
2021/04/29 12:18:31;;;;;;;16.98;12.80;;;17.00;91.70;;;;;;5031040;28;20041;-77
2021/04/29 12:20:58;;;;;;;23.90;14.50;;;17.20;91.40;;;;;;5031371;28;20044;-76
2021/04/29 12:23:24;;;;;;;20.35;13.70;;;17.30;91.50;;;;;;5031076;28;20595;-76
2021/04/29 12:26:05;;;;;;;21.13;15.27;;;17.40;91.50;;;;;;5032882;28;20037;-74
2021/04/29 12:28:36;;;;;;;22.45;15.98;;;17.50;90.00;;;;;;5031432;28;20037;-75
2021/04/29 12:31:15;;;;;;;26.45;17.40;;;17.50;88.20;;;;;;5030734;28;20506;-75
2021/04/29 12:34:01;;;;;;;35.33;17.75;;;17.40;89.40;;;;;;5029369;28;20052;-76